createdAt,value
2018-12-27T00:02:04.546Z,93.10
2018-12-27T00:04:59.965Z,100.58
2018-12-27T00:07:58.504Z,108.60
2018-12-27T00:10:52.945Z,101.78
2018-12-27T00:13:51.477Z,102.82
2018-12-27T00:16:46.912Z,108.83
2018-12-27T00:19:45.405Z,113.77
2018-12-27T00:22:41.814Z,113.83
2018-12-27T00:25:38.283Z,105.52
2018-12-27T00:28:36.575Z,106.58
2018-12-27T00:31:34.333Z,107.43
2018-12-27T00:34:31.391Z,100.15
2018-12-27T00:37:27.271Z,116.42
2018-12-27T00:40:22.732Z,109.45
2018-12-27T00:43:18.996Z,110.22
2018-12-27T00:46:14.826Z,112.80
2018-12-27T00:49:10.814Z,109.83
2018-12-27T00:52:06.152Z,118.65
2018-12-27T00:55:02.022Z,111.17
2018-12-27T00:57:57.736Z,122.00
2018-12-27T01:00:53.330Z,113.60
2018-12-27T01:03:48.908Z,116.73
2018-12-27T01:06:44.498Z,112.65
2018-12-27T01:09:40.322Z,118.53
2018-12-27T01:12:36.254Z,116.62
2018-12-27T01:15:34.548Z,121.55
2018-12-27T01:18:29.370Z,116.62
2018-12-27T01:21:25.205Z,113.00
2018-12-27T01:24:21.031Z,123.62
2018-12-27T01:27:19.003Z,127.70
2018-12-27T01:30:17.841Z,122.00
2018-12-27T01:33:18.704Z,126.02
2018-12-27T01:36:11.377Z,120.97
2018-12-27T01:39:08.129Z,116.90
2018-12-27T01:42:04.266Z,132.25
2018-12-27T01:45:00.249Z,124.27
2018-12-27T01:47:56.223Z,121.72
2018-12-27T01:50:52.196Z,117.37
2018-12-27T01:53:49.319Z,124.90
2018-12-27T01:56:46.646Z,124.18
2018-12-27T01:59:43.990Z,126.05
2018-12-27T02:02:40.172Z,118.57
2018-12-27T02:05:36.289Z,121.87
2018-12-27T02:08:32.562Z,121.05
2018-12-27T02:11:28.241Z,120.65
2018-12-27T02:14:24.411Z,121.80
2018-12-27T02:17:20.393Z,118.30
2018-12-27T02:20:16.104Z,131.45
2018-12-27T02:23:16.913Z,129.15
2018-12-27T02:26:18.133Z,125.15
2018-12-27T02:29:11.970Z,119.47
2018-12-27T02:32:07.887Z,119.80
2018-12-27T02:35:03.677Z,114.75
2018-12-27T02:37:59.146Z,119.62
2018-12-27T02:40:55.254Z,122.67
2018-12-27T02:43:54.089Z,127.60
2018-12-27T02:46:49.811Z,121.02
2018-12-27T02:49:45.890Z,123.15
2018-12-27T02:52:41.417Z,119.75
2018-12-27T02:55:37.123Z,125.35
2018-12-27T02:58:32.479Z,114.40
2018-12-27T03:01:28.042Z,114.80
2018-12-27T03:04:23.293Z,119.77
2018-12-27T03:07:19.090Z,122.45
2018-12-27T03:10:17.974Z,121.33
2018-12-27T03:13:13.388Z,116.55
2018-12-27T03:16:09.422Z,113.88
2018-12-27T03:19:04.824Z,119.28
2018-12-27T03:22:00.871Z,117.00
2018-12-27T03:24:56.389Z,116.08
2018-12-27T03:27:52.140Z,117.82
2018-12-27T03:30:47.906Z,115.70
2018-12-27T03:33:52.476Z,125.07
2018-12-27T03:36:42.402Z,118.93
2018-12-27T03:39:37.992Z,115.62
2018-12-27T03:42:33.750Z,114.08
2018-12-27T03:45:29.667Z,117.47
2018-12-27T03:48:25.390Z,119.80
2018-12-27T03:51:20.881Z,116.35
2018-12-27T03:54:16.409Z,110.28
2018-12-27T03:57:12.316Z,115.72
2018-12-27T04:00:08.282Z,116.75
2018-12-27T04:03:04.449Z,117.87
2018-12-27T04:06:00.083Z,115.03
2018-12-27T04:08:59.179Z,113.60
2018-12-27T04:11:58.592Z,111.83
2018-12-27T04:14:53.052Z,113.60
2018-12-27T04:17:48.662Z,118.95
2018-12-27T04:20:44.373Z,111.72
2018-12-27T04:23:40.162Z,113.20
2018-12-27T04:26:36.036Z,109.65
2018-12-27T04:29:31.783Z,114.95
2018-12-27T04:32:28.298Z,109.22
2018-12-27T04:35:24.015Z,110.65
2018-12-27T04:38:20.088Z,109.78
2018-12-27T04:41:16.668Z,104.10
2018-12-27T04:44:12.954Z,104.78
2018-12-27T04:47:09.119Z,117.08
2018-12-27T04:50:04.941Z,109.87
2018-12-27T04:53:01.009Z,104.32
2018-12-27T04:55:58.312Z,103.78
2018-12-27T04:58:54.507Z,107.00
2018-12-27T05:01:51.450Z,110.97
2018-12-27T05:04:47.087Z,110.05
2018-12-27T05:07:44.083Z,101.75
2018-12-27T05:10:39.463Z,107.15
2018-12-27T05:13:41.771Z,107.60
2018-12-27T05:16:42.577Z,115.75
2018-12-27T05:19:43.356Z,101.27
2018-12-27T05:22:38.075Z,105.27
2018-12-27T05:25:33.979Z,99.17
2018-12-27T05:28:29.917Z,105.25
2018-12-27T05:31:29.573Z,100.53
2018-12-27T05:34:26.569Z,102.12
2018-12-27T05:37:24.422Z,96.60
2018-12-27T05:40:23.406Z,102.95
2018-12-27T05:43:20.194Z,94.80
2018-12-27T05:46:20.473Z,95.12
2018-12-27T05:49:17.178Z,94.55
2018-12-27T05:52:13.724Z,98.72
2018-12-27T05:55:12.603Z,95.28
2018-12-27T05:58:09.463Z,100.42
2018-12-27T06:01:07.521Z,87.85
2018-12-27T06:04:04.235Z,90.20
2018-12-27T06:07:01.881Z,91.35
2018-12-27T06:10:00.284Z,89.00
2018-12-27T06:12:55.600Z,91.15
2018-12-27T06:15:52.295Z,87.10
2018-12-27T06:18:48.245Z,94.47
2018-12-27T06:21:43.694Z,85.12
2018-12-27T06:24:39.522Z,86.72
2018-12-27T06:27:35.000Z,85.87
2018-12-27T06:30:39.093Z,86.97
2018-12-27T06:33:34.735Z,90.00
2018-12-27T06:36:30.357Z,87.17
2018-12-27T06:39:26.111Z,87.20
2018-12-27T06:42:23.392Z,87.62
2018-12-27T06:45:19.356Z,85.80
2018-12-27T06:48:15.798Z,87.05
2018-12-27T06:51:12.013Z,84.05
2018-12-27T06:54:07.925Z,97.78
2018-12-27T06:57:06.827Z,86.15
2018-12-27T07:00:05.337Z,87.70
2018-12-27T07:03:00.642Z,84.07
2018-12-27T07:05:57.895Z,83.78
2018-12-27T07:08:57.954Z,84.67
2018-12-27T07:11:56.463Z,82.82
2018-12-27T07:14:56.557Z,86.97
2018-12-27T07:17:56.962Z,80.72
2018-12-27T07:20:56.274Z,86.87
2018-12-27T07:23:55.636Z,87.78
2018-12-27T07:26:53.204Z,82.67
2018-12-27T07:29:49.163Z,79.90
2018-12-27T07:32:45.367Z,83.60
2018-12-27T07:35:42.153Z,84.07
2018-12-27T07:38:38.264Z,78.25
2018-12-27T07:41:33.825Z,82.62
2018-12-27T07:44:29.313Z,81.10
2018-12-27T07:47:26.268Z,81.22
2018-12-27T07:50:21.886Z,80.53
2018-12-27T07:53:17.906Z,81.97
2018-12-27T07:56:17.565Z,80.07
2018-12-27T07:59:17.263Z,77.65
2018-12-27T08:02:15.643Z,79.12
2018-12-27T08:05:11.272Z,77.95
2018-12-27T08:08:07.871Z,76.05
2018-12-27T08:11:07.541Z,75.60
2018-12-27T08:14:04.070Z,77.40
2018-12-27T08:17:00.281Z,76.12
2018-12-27T08:20:00.688Z,74.55
2018-12-27T08:22:56.443Z,75.80
2018-12-27T08:25:53.189Z,73.00
2018-12-27T08:28:57.588Z,75.12
2018-12-27T08:32:00.201Z,74.37
2018-12-27T08:34:57.732Z,70.65
2018-12-27T08:38:04.082Z,76.28
2018-12-27T08:41:07.019Z,71.33
2018-12-27T08:44:09.068Z,70.75
2018-12-27T08:47:14.785Z,72.30
2018-12-27T08:50:15.040Z,71.07
2018-12-27T08:53:18.697Z,72.17
2018-12-27T08:56:31.971Z,70.95
2018-12-27T08:59:34.416Z,71.12
2018-12-27T09:02:37.961Z,71.00
2018-12-27T09:05:40.275Z,71.92
2018-12-27T09:08:37.656Z,69.80
2018-12-27T09:11:33.254Z,70.83
2018-12-27T09:14:31.819Z,70.92
2018-12-27T09:17:28.148Z,70.22
2018-12-27T09:20:23.709Z,70.42
2018-12-27T09:23:20.800Z,69.97
2018-12-27T09:26:16.651Z,68.62
2018-12-27T09:29:12.248Z,68.65
2018-12-27T09:32:08.031Z,65.95
2018-12-27T09:35:04.042Z,69.65
2018-12-27T09:38:00.387Z,68.67
2018-12-27T09:40:56.453Z,67.95
2018-12-27T09:43:52.555Z,68.22
2018-12-27T09:46:48.202Z,66.65
2018-12-27T09:49:43.755Z,67.35
2018-12-27T09:52:39.105Z,70.55
2018-12-27T09:55:34.466Z,71.05
2018-12-27T09:58:31.563Z,67.82
2018-12-27T10:01:27.042Z,67.45
2018-12-27T10:04:22.166Z,68.35
2018-12-27T10:07:17.730Z,68.65
2018-12-27T10:10:13.202Z,66.97
2018-12-27T10:13:08.997Z,67.17
2018-12-27T10:16:05.585Z,69.40
2018-12-27T10:19:04.928Z,65.85
2018-12-27T10:21:57.865Z,67.05
2018-12-27T10:24:53.308Z,69.72
2018-12-27T10:27:49.899Z,69.95
2018-12-27T10:30:59.618Z,65.40
2018-12-27T10:34:00.510Z,68.00
2018-12-27T10:37:07.087Z,66.17
2018-12-27T10:40:12.981Z,65.75
2018-12-27T10:43:19.931Z,66.77
2018-12-27T10:46:21.607Z,67.22
2018-12-27T10:49:29.761Z,67.87
2018-12-27T10:52:32.624Z,65.10
2018-12-27T10:55:39.969Z,65.52
2018-12-27T10:58:50.456Z,67.55
2018-12-27T11:01:52.526Z,65.52
2018-12-27T11:04:57.507Z,64.47
2018-12-27T11:07:59.049Z,63.10
2018-12-27T11:10:56.353Z,65.28
2018-12-27T11:14:04.926Z,64.67
2018-12-27T11:17:09.949Z,62.20
2018-12-27T11:20:09.952Z,64.85
2018-12-27T11:23:15.781Z,63.35
2018-12-27T11:26:16.611Z,61.70
2018-12-27T11:29:23.231Z,64.85
2018-12-27T11:32:21.411Z,62.93
2018-12-27T11:35:29.561Z,63.55
2018-12-27T11:38:31.423Z,62.67
2018-12-27T11:41:40.545Z,63.02
2018-12-27T11:44:42.679Z,62.00
2018-12-27T11:47:45.338Z,61.40
2018-12-27T11:50:55.098Z,62.75
2018-12-27T11:54:05.127Z,60.10
2018-12-27T11:57:03.295Z,60.73
2018-12-27T12:00:06.426Z,62.53
2018-12-27T12:03:15.047Z,60.28
2018-12-27T12:06:21.585Z,59.83
2018-12-27T12:09:46.215Z,60.65
2018-12-27T12:12:57.667Z,60.73
2018-12-27T12:16:09.784Z,60.43
2018-12-27T12:19:19.514Z,60.12
2018-12-27T12:22:24.848Z,59.77
2018-12-27T12:25:28.574Z,59.23
2018-12-27T12:28:36.112Z,59.27
2018-12-27T12:31:44.298Z,60.95
2018-12-27T12:34:45.650Z,63.48
2018-12-27T12:37:48.446Z,61.80
2018-12-27T12:40:50.531Z,62.45
2018-12-27T12:43:56.476Z,63.08
2018-12-27T12:47:02.947Z,63.63
2018-12-27T12:50:04.666Z,63.87
2018-12-27T12:53:08.624Z,63.95
2018-12-27T12:56:07.641Z,62.33
2018-12-27T12:59:05.008Z,63.65
2018-12-27T13:02:02.590Z,62.80
2018-12-27T13:05:10.402Z,61.33
2018-12-27T13:08:16.925Z,63.13
2018-12-27T13:11:14.342Z,61.60
2018-12-27T13:14:11.266Z,63.20
2018-12-27T13:17:12.684Z,64.42
2018-12-27T13:20:17.198Z,63.50
2018-12-27T13:23:16.547Z,65.52
2018-12-27T13:26:21.287Z,65.00
2018-12-27T13:29:42.509Z,66.67
2018-12-27T13:32:42.630Z,67.55
2018-12-27T13:35:49.536Z,65.52
2018-12-27T13:38:45.702Z,67.32
2018-12-27T13:41:44.551Z,67.75
2018-12-27T13:44:40.777Z,66.02
2018-12-27T13:47:36.542Z,67.40
2018-12-27T13:50:32.473Z,66.87
2018-12-27T13:53:28.339Z,69.37
2018-12-27T13:56:24.130Z,70.65
2018-12-27T13:59:19.429Z,71.97
2018-12-27T14:02:15.360Z,69.05
2018-12-27T14:05:11.338Z,69.00
2018-12-27T14:08:08.129Z,71.65
2018-12-27T14:11:03.967Z,72.25
2018-12-27T14:14:02.603Z,77.42
2018-12-27T14:16:58.736Z,71.47
2018-12-27T14:19:54.654Z,73.10
2018-12-27T14:22:50.945Z,72.47
2018-12-27T14:25:46.639Z,74.53
2018-12-27T14:28:42.195Z,72.92
2018-12-27T14:31:37.813Z,72.27
2018-12-27T14:34:33.393Z,73.72
2018-12-27T14:37:29.174Z,74.22
2018-12-27T14:40:27.139Z,78.40
2018-12-27T14:43:23.025Z,76.95
2018-12-27T14:46:19.087Z,78.52
2018-12-27T14:49:14.857Z,74.87
2018-12-27T14:52:10.555Z,77.05
2018-12-27T14:55:06.645Z,77.65
2018-12-27T14:58:02.090Z,80.95
2018-12-27T15:01:05.877Z,79.25
2018-12-27T15:03:55.027Z,75.60
2018-12-27T15:06:50.886Z,83.03
2018-12-27T15:09:46.647Z,78.52
2018-12-27T15:12:42.327Z,82.40
2018-12-27T15:15:38.062Z,74.77
2018-12-27T15:18:34.147Z,77.47
2018-12-27T15:21:29.609Z,78.02
2018-12-27T15:24:25.463Z,77.08
2018-12-27T15:27:21.744Z,77.53
2018-12-27T15:30:17.385Z,79.27
2018-12-27T15:33:13.887Z,76.50
2018-12-27T15:36:09.371Z,74.90
2018-12-27T15:39:05.513Z,78.05
2018-12-27T15:42:01.611Z,78.67
2018-12-27T15:44:57.885Z,75.85
2018-12-27T15:47:56.413Z,83.47
2018-12-27T15:50:50.860Z,79.35
2018-12-27T15:53:47.251Z,78.50
2018-12-27T15:56:43.276Z,81.65
2018-12-27T15:59:42.716Z,82.53
2018-12-27T16:02:38.418Z,79.55
2018-12-27T16:05:34.023Z,81.30
2018-12-27T16:08:31.173Z,78.70
2018-12-27T16:11:26.915Z,87.78
2018-12-27T16:14:23.086Z,80.05
2018-12-27T16:17:18.949Z,85.32
2018-12-27T16:20:15.100Z,87.05
2018-12-27T16:23:10.784Z,81.72
2018-12-27T16:26:07.244Z,88.75
2018-12-27T16:29:02.665Z,82.00
2018-12-27T16:31:58.080Z,83.82
2018-12-27T16:34:55.132Z,85.22
2018-12-27T16:37:50.727Z,83.87
2018-12-27T16:40:46.108Z,81.53
2018-12-27T16:43:44.727Z,80.50
2018-12-27T16:46:40.284Z,82.17
2018-12-27T16:49:35.734Z,83.27
2018-12-27T16:52:31.377Z,80.60
2018-12-27T16:55:27.194Z,81.08
2018-12-27T16:58:22.675Z,81.35
2018-12-27T17:01:17.934Z,81.85
2018-12-27T17:04:13.389Z,79.55
2018-12-27T17:07:15.884Z,83.70
2018-12-27T17:10:06.711Z,81.17
2018-12-27T17:13:02.421Z,84.90
2018-12-27T17:15:58.369Z,88.05
2018-12-27T17:18:57.937Z,94.45
2018-12-27T17:21:53.559Z,87.67
2018-12-27T17:24:49.573Z,82.42
2018-12-27T17:27:45.241Z,86.87
2018-12-27T17:30:41.269Z,86.50
2018-12-27T17:33:36.606Z,84.35
2018-12-27T17:36:31.838Z,86.40
2018-12-27T17:39:27.560Z,85.83
2018-12-27T17:42:26.091Z,84.95
2018-12-27T17:45:24.677Z,82.97
2018-12-27T17:48:20.629Z,84.95
2018-12-27T17:51:16.179Z,83.85
2018-12-27T17:54:13.085Z,85.75
2018-12-27T17:57:09.072Z,83.75
2018-12-27T18:00:04.934Z,85.30
2018-12-27T18:03:00.394Z,83.52
2018-12-27T18:05:55.927Z,83.52
2018-12-27T18:08:51.408Z,84.37
2018-12-27T18:11:46.787Z,85.25
2018-12-27T18:14:42.289Z,86.53
2018-12-27T18:17:38.065Z,87.05
2018-12-27T18:20:33.676Z,93.92
2018-12-27T18:23:29.414Z,89.37
2018-12-27T18:26:24.773Z,97.30
2018-12-27T18:29:20.360Z,90.80
2018-12-27T18:32:15.962Z,93.62
2018-12-27T18:35:11.514Z,92.05
2018-12-27T18:38:07.038Z,99.03
2018-12-27T18:41:02.740Z,91.40
2018-12-27T18:43:58.350Z,96.87
2018-12-27T18:46:53.836Z,96.10
2018-12-27T18:49:50.455Z,91.82
2018-12-27T18:52:46.161Z,93.50
2018-12-27T18:55:41.973Z,95.25
2018-12-27T18:58:37.398Z,95.97
2018-12-27T19:01:33.109Z,99.00
2018-12-27T19:04:28.637Z,94.05
2018-12-27T19:07:24.698Z,90.10
2018-12-27T19:10:20.604Z,91.08
2018-12-27T19:13:17.405Z,93.62
2018-12-27T19:16:13.593Z,96.45
2018-12-27T19:19:09.224Z,99.58
2018-12-27T19:22:17.198Z,98.87
2018-12-27T19:25:13.435Z,96.05
2018-12-27T19:28:09.043Z,93.50
2018-12-27T19:31:05.193Z,97.10
2018-12-27T19:34:02.082Z,94.25
2018-12-27T19:36:57.928Z,96.00
2018-12-27T19:39:53.710Z,93.12
2018-12-27T19:42:49.304Z,95.25
2018-12-27T19:45:45.117Z,99.72
2018-12-27T19:48:41.146Z,96.70
2018-12-27T19:51:36.973Z,90.95
2018-12-27T19:54:32.715Z,92.60
2018-12-27T19:57:28.362Z,95.15
2018-12-27T20:00:24.230Z,98.35
2018-12-27T20:03:20.401Z,97.02
2018-12-27T20:06:16.353Z,98.95
2018-12-27T20:09:14.195Z,89.50
2018-12-27T20:12:09.728Z,92.55
2018-12-27T20:15:05.401Z,99.42
2018-12-27T20:18:01.286Z,97.82
2018-12-27T20:20:56.879Z,96.60
2018-12-27T20:23:53.219Z,97.08
2018-12-27T20:26:48.979Z,89.85
2018-12-27T20:29:45.917Z,94.47
2018-12-27T20:32:41.686Z,93.17
2018-12-27T20:35:37.122Z,92.42
2018-12-27T20:38:35.481Z,88.07
2018-12-27T20:41:31.148Z,89.52
2018-12-27T20:44:26.802Z,88.55
2018-12-27T20:47:25.988Z,86.67
2018-12-27T20:50:21.879Z,88.03
2018-12-27T20:53:17.511Z,85.10
2018-12-27T20:56:13.150Z,88.78
2018-12-27T20:59:09.099Z,86.45
2018-12-27T21:02:04.631Z,90.65
2018-12-27T21:05:00.445Z,86.97
2018-12-27T21:07:55.851Z,89.83
2018-12-27T21:10:51.480Z,84.75
2018-12-27T21:13:47.374Z,90.60
2018-12-27T21:16:42.990Z,84.60
2018-12-27T21:19:39.553Z,86.12
2018-12-27T21:22:35.110Z,85.53
2018-12-27T21:25:31.108Z,82.15
2018-12-27T21:28:27.341Z,80.20
2018-12-27T21:31:22.752Z,79.17
2018-12-27T21:34:18.727Z,78.57
2018-12-27T21:37:14.057Z,79.72
2018-12-27T21:40:10.007Z,79.72
2018-12-27T21:43:05.477Z,74.25
2018-12-27T21:46:04.901Z,79.40
2018-12-27T21:49:00.535Z,80.55
2018-12-27T21:51:56.593Z,78.92
2018-12-27T21:54:55.918Z,79.85
2018-12-27T21:57:49.476Z,85.42
2018-12-27T22:00:46.695Z,75.85
2018-12-27T22:03:42.537Z,78.62
2018-12-27T22:06:38.086Z,81.00
2018-12-27T22:09:33.636Z,75.57
2018-12-27T22:12:29.156Z,78.67
2018-12-27T22:15:30.066Z,79.50
2018-12-27T22:18:22.948Z,85.80
2018-12-27T22:21:18.298Z,83.10
2018-12-27T22:24:15.031Z,77.60
2018-12-27T22:27:11.122Z,78.30
2018-12-27T22:30:07.210Z,74.90
2018-12-27T22:33:03.076Z,80.77
2018-12-27T22:35:58.982Z,79.32
2018-12-27T22:38:57.010Z,83.07
2018-12-27T22:41:52.509Z,78.62
2018-12-27T22:44:48.358Z,79.03
2018-12-27T22:47:46.641Z,84.90
2018-12-27T22:50:40.787Z,77.40
2018-12-27T22:53:39.702Z,80.47
2018-12-27T22:56:35.686Z,79.62
2018-12-27T22:59:31.033Z,76.15
2018-12-27T23:02:26.723Z,75.65
2018-12-27T23:05:24.424Z,78.25
2018-12-27T23:08:19.906Z,83.50
2018-12-27T23:11:15.322Z,78.28
2018-12-27T23:14:11.059Z,76.25
2018-12-27T23:17:06.655Z,77.10
2018-12-27T23:20:02.164Z,79.20
2018-12-27T23:22:58.753Z,80.42
2018-12-27T23:25:54.502Z,83.90
2018-12-27T23:28:50.359Z,80.87
2018-12-27T23:31:49.982Z,85.83
2018-12-27T23:34:45.352Z,78.40
2018-12-27T23:37:43.217Z,77.00
2018-12-27T23:40:39.391Z,81.45
2018-12-27T23:43:35.493Z,85.77
2018-12-27T23:46:30.768Z,82.97
2018-12-27T23:49:26.769Z,82.10
2018-12-27T23:52:24.191Z,79.67
2018-12-27T23:55:20.011Z,80.87
2018-12-27T23:58:18.186Z,85.10
